Makawao, Hawaii
Current Conditions -  °F | °C
As of 4:54 AM on Saturday 25 Oct 2014 (Local Time) from PHOG Reporting Station
Clear Clear  
Wind Chill: 67°   Ceiling: Unl
Heat Index: 67°   Visibility: 10mi
Dew Point: 62°   Wind: 3mph
Humidity: 84%   Direction: 150°SSE
Pressure: 29.99"   Gusts: NA
Location:  20.85°N, 156.31°W
Report Text: PHOG 251454Z AUTO 15003KT 10SM CLR 19/17 A2999 RMK AO2 SLP161 T01940167 55005 TSNO $
Loading
Personal Weather Stations






























Interactive Weather Map
Tropical Storm Tracking
New forecast layout! Learn more

10-Day Weather Forecast

Advertisements
Track Severe Weather on mobile